Time;durP1;ratioP1;P1;durP2;ratioP2;P2;SDS_P1;SDS_P2;PMS_P1;PMS_P2;Temp;Humidity;BMP_temperature;BMP_pressure;BME280_temperature;BME280_humidity;BME280_pressure;Samples;Min_cycle;Max_cycle;Signal;HPM_P1;HPM_P2
2024/02/02 00:02:06;;;;;;;30.52;6.13;;;6.10;99.90;;;;;;5142722;27;20038;-61
2024/02/02 00:04:32;;;;;;;29.42;5.63;;;6.10;99.90;;;;;;5139416;27;20144;-61
2024/02/02 00:06:57;;;;;;;31.48;6.30;;;6.10;99.90;;;;;;5138787;27;20126;-62
2024/02/02 00:09:23;;;;;;;34.05;6.20;;;6.10;99.90;;;;;;5139176;27;20121;-61
2024/02/02 00:11:49;;;;;;;28.65;5.05;;;6.10;99.90;;;;;;5143804;27;20184;-61
2024/02/02 00:14:15;;;;;;;28.55;5.32;;;6.20;99.90;;;;;;5122747;27;20380;-61
2024/02/02 00:16:41;;;;;;;23.45;5.25;;;6.20;99.90;;;;;;5141095;27;20038;-62
2024/02/02 00:19:07;;;;;;;30.90;6.60;;;6.10;99.90;;;;;;5136162;27;20086;-61
2024/02/02 00:21:33;;;;;;;28.05;5.43;;;6.20;99.90;;;;;;5138360;27;20078;-62
2024/02/02 00:23:58;;;;;;;30.63;5.78;;;6.20;99.90;;;;;;5141356;27;20122;-61
2024/02/02 00:26:25;;;;;;;36.88;6.13;;;6.20;99.90;;;;;;5139177;27;20035;-62
2024/02/02 00:28:51;;;;;;;24.58;5.75;;;6.20;99.90;;;;;;5137274;27;20031;-61
2024/02/02 00:31:22;;;;;;;24.77;6.47;;;6.20;99.90;;;;;;5135626;27;20045;-61
2024/02/02 00:33:50;;;;;;;34.97;6.00;;;6.20;99.90;;;;;;5134223;27;20043;-62
2024/02/02 00:36:16;;;;;;;30.33;5.88;;;6.20;99.90;;;;;;5130198;27;20027;-61
2024/02/02 00:38:42;;;;;;;28.17;7.03;;;6.20;99.90;;;;;;5135456;27;20041;-61
2024/02/02 00:41:08;;;;;;;29.10;6.47;;;6.20;99.90;;;;;;5139282;27;20035;-61
2024/02/02 00:43:35;;;;;;;24.73;5.63;;;6.30;99.90;;;;;;5139196;27;20155;-61
2024/02/02 00:46:00;;;;;;;32.72;5.50;;;6.30;99.90;;;;;;5130939;27;20059;-61
2024/02/02 00:48:27;;;;;;;28.30;5.65;;;6.20;99.90;;;;;;5118432;27;20079;-61
2024/02/02 00:50:53;;;;;;;39.13;6.50;;;6.30;99.90;;;;;;5141010;27;20035;-61
2024/02/02 00:53:19;;;;;;;35.30;6.63;;;6.30;99.90;;;;;;5142763;27;20034;-61
2024/02/02 00:55:45;;;;;;;34.00;7.00;;;6.30;99.90;;;;;;5142341;27;20039;-62
2024/02/02 00:58:10;;;;;;;24.30;6.40;;;6.40;99.90;;;;;;5140237;27;20027;-61
2024/02/02 01:00:36;;;;;;;26.23;5.88;;;6.40;99.90;;;;;;5142500;27;20058;-61
2024/02/02 01:03:02;;;;;;;31.70;6.30;;;6.40;99.90;;;;;;5145248;27;20143;-62
2024/02/02 01:05:30;;;;;;;35.38;6.93;;;6.40;99.90;;;;;;5143914;27;20616;-61
2024/02/02 01:07:56;;;;;;;22.90;6.20;;;6.40;99.90;;;;;;5143646;27;20045;-62
2024/02/02 01:10:22;;;;;;;29.67;5.28;;;6.40;99.90;;;;;;5138112;27;20406;-62
2024/02/02 01:12:48;;;;;;;31.75;7.45;;;6.50;99.90;;;;;;5143758;27;20023;-61
2024/02/02 01:15:17;;;;;;;38.88;6.80;;;6.40;99.90;;;;;;5136288;27;20600;-61
2024/02/02 01:17:45;;;;;;;31.48;7.10;;;6.40;99.90;;;;;;5145939;27;20041;-62
2024/02/02 01:20:13;;;;;;;23.90;5.97;;;6.50;99.90;;;;;;5143689;27;20038;-61
2024/02/02 01:22:40;;;;;;;32.33;7.77;;;6.50;99.90;;;;;;5142971;27;20117;-62
2024/02/02 01:25:09;;;;;;;27.10;5.75;;;6.50;99.90;;;;;;5139113;27;20274;-61
2024/02/02 01:27:35;;;;;;;31.77;5.80;;;6.50;99.90;;;;;;5145247;27;20085;-62
2024/02/02 01:30:02;;;;;;;29.98;7.55;;;6.60;99.90;;;;;;5145584;27;20461;-62
2024/02/02 01:32:28;;;;;;;28.98;5.55;;;6.60;99.90;;;;;;5145332;27;20047;-62
2024/02/02 01:34:53;;;;;;;27.10;6.43;;;6.60;99.90;;;;;;5135025;27;20481;-62
2024/02/02 01:37:19;;;;;;;22.35;6.10;;;6.60;99.90;;;;;;5136297;27;20039;-62
2024/02/02 01:39:45;;;;;;;31.20;6.38;;;6.60;99.90;;;;;;5133895;27;20042;-62
2024/02/02 01:42:12;;;;;;;29.25;5.65;;;6.60;99.90;;;;;;5135696;27;20035;-62
2024/02/02 01:44:38;;;;;;;25.58;5.20;;;6.60;99.90;;;;;;5138471;27;20615;-62
2024/02/02 01:47:03;;;;;;;20.13;5.93;;;6.60;99.90;;;;;;5124067;27;20122;-62
2024/02/02 01:49:29;;;;;;;23.60;5.50;;;6.70;99.90;;;;;;5145562;27;20579;-62
2024/02/02 01:51:56;;;;;;;23.73;5.63;;;6.70;99.90;;;;;;5136223;27;20035;-62
2024/02/02 01:54:22;;;;;;;29.85;7.10;;;6.60;99.90;;;;;;5146747;27;20657;-62
2024/02/02 01:56:48;;;;;;;29.00;6.05;;;6.60;99.90;;;;;;5138964;27;20031;-61
2024/02/02 01:59:14;;;;;;;27.63;6.10;;;6.60;99.90;;;;;;5139237;27;20047;-61
2024/02/02 02:01:41;;;;;;;27.70;5.55;;;6.60;99.90;;;;;;5140954;27;20042;-62
2024/02/02 02:04:07;;;;;;;26.40;6.43;;;6.70;99.90;;;;;;5140397;27;20081;-62
2024/02/02 02:06:33;;;;;;;23.00;5.93;;;6.60;99.90;;;;;;5142817;27;20117;-62
2024/02/02 02:08:59;;;;;;;26.92;5.15;;;6.70;99.90;;;;;;5146626;27;20145;-62
2024/02/02 02:11:25;;;;;;;28.90;6.20;;;6.60;99.90;;;;;;5141883;27;20073;-62
2024/02/02 02:13:51;;;;;;;24.83;6.70;;;6.70;99.90;;;;;;5131137;27;20486;-62
2024/02/02 02:16:18;;;;;;;27.33;6.50;;;6.60;99.90;;;;;;5132195;27;20043;-62
2024/02/02 02:18:44;;;;;;;19.83;5.88;;;6.70;99.90;;;;;;5146077;27;20686;-62
2024/02/02 02:21:26;;;;;;;29.25;7.10;;;6.70;99.90;;;;;;5136993;27;20131;-61
2024/02/02 02:23:52;;;;;;;29.55;7.03;;;6.60;99.90;;;;;;5139876;27;20474;-62
2024/02/02 02:26:18;;;;;;;30.45;7.88;;;6.70;99.90;;;;;;5135029;27;20031;-61
2024/02/02 02:28:45;;;;;;;31.17;8.23;;;6.70;99.90;;;;;;5124517;27;20043;-62
2024/02/02 02:31:14;;;;;;;25.08;7.03;;;6.70;99.90;;;;;;5134732;27;20625;-62
2024/02/02 02:33:40;;;;;;;;;;;6.70;99.90;;;;;;5140651;27;20510;-62
2024/02/02 02:36:07;;;;;;;26.85;7.65;;;6.70;99.90;;;;;;5140906;27;20318;-62
2024/02/02 02:38:33;;;;;;;31.98;7.97;;;6.70;99.90;;;;;;5124479;27;20149;-61
2024/02/02 02:41:00;;;;;;;37.45;10.32;;;6.60;99.90;;;;;;5142862;27;20321;-61
2024/02/02 02:43:30;;;;;;;39.28;10.38;;;6.60;99.90;;;;;;5139535;27;20039;-61
2024/02/02 02:45:56;;;;;;;37.97;9.43;;;6.70;99.90;;;;;;5134129;27;20561;-62
2024/02/02 02:48:23;;;;;;;27.48;9.85;;;6.70;99.90;;;;;;5139623;27;20402;-61
2024/02/02 02:50:49;;;;;;;29.30;9.80;;;6.70;99.90;;;;;;5138452;27;20125;-62
2024/02/02 02:53:15;;;;;;;38.08;10.18;;;6.60;99.90;;;;;;5138575;27;20038;-62
2024/02/02 02:55:41;;;;;;;35.65;10.23;;;6.70;99.90;;;;;;5138438;27;20128;-61
2024/02/02 02:58:07;;;;;;;33.85;10.95;;;6.60;99.90;;;;;;5136716;27;20061;-62
2024/02/02 03:00:33;;;;;;;41.22;10.95;;;6.60;99.90;;;;;;5138858;27;20042;-61
2024/02/02 03:02:59;;;;;;;43.78;10.95;;;6.60;99.90;;;;;;5139819;27;20046;-62
2024/02/02 03:05:29;;;;;;;41.58;11.50;;;6.70;99.90;;;;;;5139070;27;20514;-61
2024/02/02 03:07:55;;;;;;;33.55;11.07;;;6.70;99.90;;;;;;5134962;27;20039;-62
2024/02/02 03:10:25;;;;;;;37.28;10.35;;;6.60;99.90;;;;;;5141035;27;20035;-62
2024/02/02 03:12:52;;;;;;;34.17;11.98;;;6.60;99.90;;;;;;5142759;27;20061;-62
2024/02/02 03:15:18;;;;;;;34.78;10.60;;;6.70;99.90;;;;;;5144888;27;20522;-61
2024/02/02 03:17:45;;;;;;;26.42;11.60;;;6.70;99.90;;;;;;5141898;27;20027;-62
2024/02/02 03:20:11;;;;;;;35.00;12.85;;;6.60;99.90;;;;;;5136490;27;20050;-61
2024/02/02 03:22:38;;;;;;;32.05;12.13;;;6.70;99.90;;;;;;5118010;27;20099;-61
2024/02/02 03:25:05;;;;;;;40.65;12.80;;;6.60;99.90;;;;;;5138872;27;20102;-61
2024/02/02 03:27:31;;;;;;;31.58;11.27;;;6.70;99.90;;;;;;5143747;27;20110;-61
2024/02/02 03:29:57;;;;;;;35.97;12.10;;;6.70;99.90;;;;;;5141922;27;20042;-61
2024/02/02 03:32:22;;;;;;;33.97;11.43;;;6.60;99.90;;;;;;5139839;27;20034;-61
2024/02/02 03:34:48;;;;;;;36.08;10.80;;;6.70;99.90;;;;;;5141474;27;20035;-62
2024/02/02 03:37:15;;;;;;;28.70;10.23;;;6.70;99.90;;;;;;5136280;27;20041;-61
2024/02/02 03:39:41;;;;;;;42.65;11.20;;;6.70;99.90;;;;;;5137697;27;20049;-62
2024/02/02 03:42:06;;;;;;;40.08;10.50;;;6.70;99.90;;;;;;5135654;27;20043;-62
2024/02/02 03:44:32;;;;;;;33.60;9.88;;;6.70;99.90;;;;;;5143030;27;20044;-62
2024/02/02 03:46:58;;;;;;;38.45;9.60;;;6.70;99.90;;;;;;5139469;27;20122;-61
2024/02/02 03:49:24;;;;;;;34.30;9.57;;;6.70;99.90;;;;;;5134275;27;20054;-61
2024/02/02 03:51:49;;;;;;;30.00;9.65;;;6.70;99.90;;;;;;5139784;27;20034;-62
2024/02/02 03:54:15;;;;;;;31.00;9.85;;;6.70;99.90;;;;;;5137596;27;20034;-62
2024/02/02 03:56:42;;;;;;;31.02;10.52;;;6.70;99.90;;;;;;5139822;27;20119;-61
2024/02/02 03:59:09;;;;;;;32.35;9.93;;;6.70;99.90;;;;;;5137776;27;20131;-62
2024/02/02 04:01:35;;;;;;;31.30;10.13;;;6.70;99.90;;;;;;5143523;27;20069;-62
2024/02/02 04:04:01;;;;;;;30.45;9.18;;;6.70;99.90;;;;;;5141596;27;20034;-61
2024/02/02 04:06:28;;;;;;;35.90;9.35;;;6.70;99.90;;;;;;5131026;27;20089;-61
2024/02/02 04:08:53;;;;;;;33.28;10.20;;;6.80;99.90;;;;;;5128879;27;20111;-61
2024/02/02 04:11:20;;;;;;;30.77;8.48;;;6.80;99.90;;;;;;5128321;27;20520;-61
2024/02/02 04:13:46;;;;;;;35.35;8.57;;;6.80;99.90;;;;;;5137635;27;20038;-61
2024/02/02 04:16:11;;;;;;;33.53;9.55;;;6.80;99.90;;;;;;5142030;27;20039;-60
2024/02/02 04:18:37;;;;;;;30.30;9.70;;;6.80;99.90;;;;;;5134093;27;20497;-61
2024/02/02 04:21:03;;;;;;;31.50;8.60;;;6.80;99.90;;;;;;5143408;27;20042;-61
2024/02/02 04:23:29;;;;;;;32.88;8.57;;;6.80;99.90;;;;;;5142589;27;20050;-61
2024/02/02 04:25:55;;;;;;;31.92;8.18;;;6.80;99.90;;;;;;5141315;27;20046;-61
2024/02/02 04:28:20;;;;;;;30.63;7.93;;;6.70;99.90;;;;;;5132176;27;20085;-61
2024/02/02 04:30:46;;;;;;;25.33;8.00;;;6.70;99.90;;;;;;5131068;27;20046;-62
2024/02/02 04:33:13;;;;;;;34.35;8.18;;;6.70;99.90;;;;;;5133937;27;20510;-61
2024/02/02 04:35:39;;;;;;;26.55;9.00;;;6.80;99.90;;;;;;5136091;27;20058;-61
2024/02/02 04:38:05;;;;;;;33.17;8.05;;;6.70;99.90;;;;;;5143936;27;20031;-61
2024/02/02 04:40:31;;;;;;;31.10;8.73;;;6.70;99.90;;;;;;5141219;27;20038;-61
2024/02/02 04:42:57;;;;;;;36.08;8.15;;;6.70;99.90;;;;;;5136144;27;20165;-61
2024/02/02 04:45:24;;;;;;;34.53;8.40;;;6.70;99.90;;;;;;5140460;27;20077;-61
2024/02/02 04:47:50;;;;;;;30.02;8.10;;;6.70;99.90;;;;;;5146180;27;20528;-61
2024/02/02 04:50:16;;;;;;;29.40;6.90;;;6.70;99.90;;;;;;5145587;27;20039;-61
2024/02/02 04:52:42;;;;;;;32.85;8.20;;;6.70;99.90;;;;;;5143292;27;20034;-61
2024/02/02 04:55:09;;;;;;;29.15;8.77;;;6.60;99.90;;;;;;5147392;27;20069;-61
2024/02/02 04:57:35;;;;;;;35.50;7.35;;;6.60;99.90;;;;;;5136497;27;20099;-61
2024/02/02 05:00:00;;;;;;;25.85;7.30;;;6.70;99.90;;;;;;5137114;27;20479;-61
2024/02/02 05:02:26;;;;;;;25.10;7.13;;;6.70;99.90;;;;;;5140293;27;20068;-62
2024/02/02 05:04:52;;;;;;;25.05;6.35;;;6.70;99.90;;;;;;5145695;27;20043;-61
2024/02/02 05:07:18;;;;;;;29.23;6.07;;;6.70;99.90;;;;;;5146127;27;20097;-61
2024/02/02 05:09:43;;;;;;;28.35;6.00;;;6.70;99.90;;;;;;5125017;27;20537;-61
2024/02/02 05:12:10;;;;;;;27.60;5.82;;;6.70;99.90;;;;;;5143906;27;20042;-61
2024/02/02 05:14:36;;;;;;;38.40;6.65;;;6.80;99.90;;;;;;5143119;27;20040;-61
2024/02/02 05:17:02;;;;;;;29.92;5.10;;;6.80;99.90;;;;;;5142935;27;20042;-62
2024/02/02 05:19:28;;;;;;;26.13;6.55;;;6.80;99.90;;;;;;5142624;27;20038;-62
2024/02/02 05:21:53;;;;;;;30.40;6.80;;;6.80;99.90;;;;;;5143628;27;20039;-61
2024/02/02 05:24:19;;;;;;;30.42;5.32;;;6.90;99.90;;;;;;5127855;27;20030;-61
2024/02/02 05:26:45;;;;;;;20.95;4.88;;;6.80;99.90;;;;;;5145323;27;20042;-63
2024/02/02 05:29:11;;;;;;;20.83;5.75;;;6.90;99.90;;;;;;5139443;27;20546;-62
2024/02/02 05:31:37;;;;;;;30.88;5.30;;;6.90;99.90;;;;;;5133017;27;20049;-61
2024/02/02 05:34:03;;;;;;;29.20;5.22;;;6.80;99.90;;;;;;5138101;27;20546;-63
2024/02/02 05:36:28;;;;;;;25.42;5.45;;;6.80;99.90;;;;;;5146550;27;21279;-62
2024/02/02 05:38:54;;;;;;;20.75;4.80;;;6.90;99.90;;;;;;5144558;27;20035;-62
2024/02/02 05:41:20;;;;;;;26.92;5.47;;;6.90;99.90;;;;;;5137695;27;20046;-62
2024/02/02 05:43:46;;;;;;;28.63;6.10;;;6.90;99.90;;;;;;5116244;27;20134;-61
2024/02/02 05:46:12;;;;;;;22.77;4.72;;;6.90;99.90;;;;;;5141837;27;20048;-61
2024/02/02 05:48:37;;;;;;;25.70;4.57;;;6.90;99.90;;;;;;5142454;27;20506;-62
2024/02/02 05:51:03;;;;;;;23.60;5.55;;;6.90;99.90;;;;;;5143341;27;20047;-62
2024/02/02 05:53:29;;;;;;;31.35;5.00;;;6.90;99.90;;;;;;5137876;27;20082;-61
2024/02/02 05:55:55;;;;;;;21.42;4.97;;;6.80;99.90;;;;;;5143612;27;20075;-61
2024/02/02 05:58:21;;;;;;;27.42;5.30;;;6.80;99.90;;;;;;5140921;27;20035;-62
2024/02/02 06:00:47;;;;;;;27.05;5.15;;;6.90;99.90;;;;;;5133372;27;20298;-62
2024/02/02 06:03:13;;;;;;;23.92;4.95;;;6.80;99.90;;;;;;5124001;27;20062;-62
2024/02/02 06:05:38;;;;;;;24.05;4.38;;;6.90;99.90;;;;;;5140047;27;20076;-62
2024/02/02 06:08:06;;;;;;;30.98;5.32;;;6.90;99.90;;;;;;5136119;27;20043;-62
2024/02/02 06:10:32;;;;;;;26.52;5.43;;;6.90;99.90;;;;;;5144419;27;20043;-61
2024/02/02 06:12:58;;;;;;;23.85;4.57;;;6.90;99.90;;;;;;5144528;27;20039;-62
2024/02/02 06:15:24;;;;;;;31.67;4.95;;;6.90;99.90;;;;;;5141291;27;20041;-61
2024/02/02 06:17:51;;;;;;;22.88;4.68;;;6.90;99.90;;;;;;5139058;27;20102;-61
2024/02/02 06:20:17;;;;;;;29.83;5.70;;;6.80;99.90;;;;;;5142087;27;20073;-61
2024/02/02 06:22:43;;;;;;;28.80;5.80;;;6.80;99.90;;;;;;5141244;27;20045;-61
2024/02/02 06:25:09;;;;;;;31.63;5.22;;;6.80;99.90;;;;;;5141792;27;20253;-62
2024/02/02 06:27:36;;;;;;;31.90;5.70;;;6.80;99.90;;;;;;5142904;27;20585;-62
2024/02/02 06:30:03;;;;;;;33.13;5.43;;;6.80;99.90;;;;;;5142688;27;20047;-61
2024/02/02 06:32:30;;;;;;;30.50;6.72;;;6.70;99.90;;;;;;5141726;27;20044;-61
2024/02/02 06:34:56;;;;;;;29.10;6.93;;;6.70;99.90;;;;;;5143834;27;20030;-61
2024/02/02 06:37:23;;;;;;;41.95;6.10;;;6.70;99.90;;;;;;5140077;27;20039;-61
2024/02/02 06:39:52;;;;;;;29.63;6.28;;;6.70;99.90;;;;;;5145428;27;20586;-61
2024/02/02 06:42:21;;;;;;;26.63;5.53;;;6.70;99.90;;;;;;5143006;27;20042;-61
2024/02/02 06:44:48;;;;;;;28.42;5.38;;;6.70;99.90;;;;;;5123697;27;20123;-61
2024/02/02 06:47:16;;;;;;;30.42;5.57;;;6.70;99.90;;;;;;5142390;27;20439;-61
2024/02/02 06:49:41;;;;;;;31.50;5.28;;;6.70;99.90;;;;;;5119894;27;20584;-61
2024/02/02 06:52:07;;;;;;;40.47;7.60;;;6.60;99.90;;;;;;5141987;27;20034;-62
2024/02/02 06:54:33;;;;;;;38.40;7.03;;;6.60;99.90;;;;;;5141739;27;20064;-61
2024/02/02 06:56:59;;;;;;;29.77;6.22;;;6.70;99.90;;;;;;5139311;27;20027;-62
2024/02/02 06:59:25;;;;;;;33.85;6.13;;;6.60;99.90;;;;;;5141594;27;20061;-61
2024/02/02 07:01:51;;;;;;;27.17;5.40;;;6.60;99.90;;;;;;5141372;27;20046;-61
2024/02/02 07:04:17;;;;;;;24.70;6.18;;;6.50;99.90;;;;;;5142208;27;20030;-61
2024/02/02 07:06:45;;;;;;;40.83;6.47;;;6.50;99.90;;;;;;5142205;27;20093;-61
2024/02/02 07:09:19;;;;;;;33.88;6.13;;;6.50;99.90;;;;;;5142272;27;20073;-62
2024/02/02 07:12:04;;;;;;;29.67;5.63;;;6.60;99.90;;;;;;5143391;27;20533;-62
2024/02/02 07:14:35;;;;;;;32.65;4.97;;;6.60;99.90;;;;;;5121476;27;20047;-62
2024/02/02 07:17:02;;;;;;;26.38;6.78;;;6.60;99.90;;;;;;5141556;27;20530;-61
2024/02/02 07:19:41;;;;;;;34.80;5.95;;;6.60;99.90;;;;;;5142421;27;20093;-61
2024/02/02 07:22:37;;;;;;;25.52;5.65;;;6.50;99.90;;;;;;5122291;27;20340;-62
2024/02/02 07:25:17;;;;;;;38.78;6.13;;;6.50;99.90;;;;;;5138986;27;20117;-62
2024/02/02 07:27:55;;;;;;;33.42;6.45;;;6.50;99.90;;;;;;5140673;27;20039;-61
2024/02/02 07:30:52;;;;;;;27.30;5.90;;;6.50;99.90;;;;;;5139832;27;20341;-62
2024/02/02 07:33:43;;;;;;;33.67;6.07;;;6.60;99.90;;;;;;5123447;27;20049;-62
2024/02/02 07:36:26;;;;;;;;;;;6.60;99.90;;;;;;5140499;27;20062;-61
2024/02/02 07:38:55;;;;;;;24.05;5.88;;;6.60;99.90;;;;;;5140735;27;19919;-62
2024/02/02 07:41:28;;;;;;;28.65;5.45;;;6.60;99.90;;;;;;5141528;27;20487;-62
2024/02/02 07:43:59;;;;;;;34.65;5.47;;;6.50;99.90;;;;;;5136266;27;20860;-62
2024/02/02 07:46:25;;;;;;;31.08;5.78;;;6.60;99.90;;;;;;5141276;27;20210;-62
2024/02/02 07:48:52;;;;;;;29.30;5.85;;;6.60;99.90;;;;;;5141816;27;20043;-63
2024/02/02 07:51:19;;;;;;;32.13;6.80;;;6.60;99.90;;;;;;5141054;27;20035;-63
2024/02/02 07:53:46;;;;;;;36.47;5.72;;;6.60;99.90;;;;;;5141798;27;20053;-62
2024/02/02 07:56:17;;;;;;;26.25;5.82;;;6.60;99.90;;;;;;5139746;27;20504;-62
2024/02/02 07:58:43;;;;;;;26.98;5.13;;;6.70;99.90;;;;;;5139586;27;20037;-63
2024/02/02 08:01:09;;;;;;;34.30;5.50;;;6.70;99.90;;;;;;5142294;27;20501;-63
2024/02/02 08:03:36;;;;;;;28.48;5.78;;;6.80;99.90;;;;;;5138646;27;20127;-63
2024/02/02 08:06:02;;;;;;;29.10;5.05;;;6.80;99.90;;;;;;5139128;27;20044;-63
2024/02/02 08:08:31;;;;;;;41.58;6.75;;;6.80;99.90;;;;;;5141593;27;20081;-62
2024/02/02 08:10:57;;;;;;;33.85;5.50;;;6.80;99.90;;;;;;5139938;27;20042;-62
2024/02/02 08:13:23;;;;;;;38.25;8.48;;;6.90;99.90;;;;;;5139876;27;20087;-63
2024/02/02 08:15:48;;;;;;;40.72;6.78;;;6.90;99.90;;;;;;5140308;27;20034;-63
2024/02/02 08:18:14;;;;;;;29.40;6.07;;;7.00;99.90;;;;;;5141781;27;20756;-62
2024/02/02 08:20:40;;;;;;;32.22;6.43;;;6.90;99.90;;;;;;5141386;27;20406;-63
2024/02/02 08:23:06;;;;;;;37.35;7.20;;;7.00;99.90;;;;;;5138838;27;20171;-63
2024/02/02 08:25:33;;;;;;;30.15;6.25;;;7.00;99.90;;;;;;5141691;27;20034;-62
2024/02/02 08:28:00;;;;;;;28.98;6.03;;;7.00;99.90;;;;;;5137915;27;20039;-62
2024/02/02 08:30:27;;;;;;;30.10;6.50;;;7.00;99.90;;;;;;5140173;27;20137;-63
2024/02/02 08:32:52;;;;;;;32.03;6.63;;;7.00;99.90;;;;;;5141719;27;20046;-63
2024/02/02 08:35:20;;;;;;;41.20;6.60;;;7.00;99.90;;;;;;5141367;27;20573;-62
2024/02/02 08:37:47;;;;;;;26.10;5.40;;;7.00;99.90;;;;;;5138974;27;20039;-63
2024/02/02 08:40:22;;;;;;;38.85;5.85;;;7.10;99.90;;;;;;5139993;27;20042;-63
2024/02/02 08:42:47;;;;;;;38.83;7.03;;;7.10;99.90;;;;;;5141655;27;20046;-63
2024/02/02 08:45:41;;;;;;;41.38;6.32;;;7.10;99.90;;;;;;5139304;27;20329;-62
2024/02/02 08:48:22;;;;;;;34.50;5.68;;;7.10;99.90;;;;;;5138615;27;20042;-63
2024/02/02 08:50:49;;;;;;;36.00;5.93;;;7.10;99.90;;;;;;5141312;27;20042;-63
2024/02/02 08:53:16;;;;;;;29.25;5.88;;;7.10;99.90;;;;;;5137049;27;21297;-62
2024/02/02 08:55:47;;;;;;;32.60;6.55;;;7.20;99.90;;;;;;5140723;27;20406;-63
2024/02/02 08:58:15;;;;;;;31.90;6.50;;;7.20;99.90;;;;;;5139979;27;20042;-63
2024/02/02 09:00:42;;;;;;;29.45;6.40;;;7.20;99.90;;;;;;5141550;27;20519;-63
2024/02/02 09:03:46;;;;;;;35.33;6.68;;;7.20;99.90;;;;;;5140801;27;20039;-63
2024/02/02 09:06:31;;;;;;;33.08;6.43;;;7.30;99.90;;;;;;5139450;27;20524;-63
2024/02/02 09:08:57;;;;;;;36.25;6.60;;;7.30;99.90;;;;;;5138312;27;20612;-63
2024/02/02 09:11:24;;;;;;;30.70;6.20;;;7.30;99.90;;;;;;5139048;27;20074;-63
2024/02/02 09:14:07;;;;;;;26.75;6.20;;;7.40;99.90;;;;;;5136616;27;20082;-64
2024/02/02 09:16:45;;;;;;;32.03;7.32;;;7.40;99.90;;;;;;5138839;27;20525;-63
2024/02/02 09:19:19;;;;;;;38.53;6.68;;;7.40;99.90;;;;;;5139676;27;20031;-63
2024/02/02 09:21:45;;;;;;;33.63;7.20;;;7.40;99.90;;;;;;5142709;27;20103;-62
2024/02/02 09:24:27;;;;;;;31.38;7.47;;;7.40;99.90;;;;;;5145347;27;20035;-63
2024/02/02 09:26:54;;;;;;;33.00;6.82;;;7.50;99.90;;;;;;5143690;27;20045;-62
2024/02/02 09:29:19;;;;;;;30.10;7.05;;;7.50;99.90;;;;;;5144549;27;20521;-62
2024/02/02 09:31:46;;;;;;;28.15;6.55;;;7.50;99.90;;;;;;5144269;27;20035;-62
2024/02/02 09:34:20;;;;;;;39.97;7.25;;;7.60;99.90;;;;;;5144106;27;20034;-62
2024/02/02 09:36:47;;;;;;;31.45;6.00;;;7.60;99.90;;;;;;5142839;27;20038;-62
2024/02/02 09:39:44;;;;;;;38.40;6.68;;;7.70;99.90;;;;;;5141550;27;20099;-62
2024/02/02 09:42:31;;;;;;;27.60;6.72;;;7.70;99.90;;;;;;5142945;27;20046;-62
2024/02/02 09:45:03;;;;;;;37.15;5.63;;;7.80;99.90;;;;;;5143233;27;20034;-62
2024/02/02 09:48:18;;;;;;;35.13;6.82;;;7.80;99.90;;;;;;5140367;27;20117;-62
2024/02/02 09:51:10;;;;;;;34.00;7.32;;;7.80;99.90;;;;;;5103843;27;20561;-62
2024/02/02 09:53:51;;;;;;;37.25;6.88;;;7.90;99.90;;;;;;5141666;27;20038;-62
2024/02/02 09:56:43;;;;;;;34.67;6.10;;;7.90;99.90;;;;;;5139515;27;20035;-62
2024/02/02 09:59:27;;;;;;;32.63;6.85;;;8.00;99.90;;;;;;5139498;27;20053;-63
2024/02/02 10:02:18;;;;;;;33.35;5.90;;;8.00;99.90;;;;;;5144439;27;20039;-62
2024/02/02 10:04:58;;;;;;;32.42;6.13;;;8.10;99.90;;;;;;5142419;27;20521;-62
2024/02/02 10:07:30;;;;;;;30.83;6.38;;;8.10;99.90;;;;;;5143889;27;20042;-62
2024/02/02 10:10:23;;;;;;;32.92;6.35;;;8.20;99.90;;;;;;5142100;27;20038;-62
2024/02/02 10:13:13;;;;;;;37.22;6.75;;;8.20;99.90;;;;;;5134763;27;20030;-62
2024/02/02 10:15:58;;;;;;;30.30;6.00;;;8.20;99.90;;;;;;5142315;27;20262;-62
2024/02/02 10:18:39;;;;;;;32.78;7.15;;;8.30;99.90;;;;;;5140228;27;20087;-63
2024/02/02 10:21:18;;;;;;;36.33;6.60;;;8.40;99.90;;;;;;5140129;27;20038;-63
2024/02/02 10:24:08;;;;;;;29.20;7.32;;;8.40;99.90;;;;;;5142812;27;20031;-62
2024/02/02 10:26:52;;;;;;;31.05;6.03;;;8.50;99.90;;;;;;5140838;27;20042;-62
2024/02/02 10:29:30;;;;;;;25.38;5.68;;;8.60;99.90;;;;;;5136258;27;20745;-62
2024/02/02 10:32:10;;;;;;;30.23;7.47;;;8.70;99.90;;;;;;5139956;27;20481;-63
2024/02/02 10:34:51;;;;;;;26.77;5.88;;;8.70;99.90;;;;;;5139144;27;20399;-63
2024/02/02 10:37:37;;;;;;;31.40;6.35;;;8.70;99.90;;;;;;5143298;27;20049;-63
2024/02/02 10:40:11;;;;;;;27.27;6.65;;;8.80;99.90;;;;;;5142030;27;20035;-62
2024/02/02 10:43:05;;;;;;;23.75;5.82;;;8.80;99.90;;;;;;5141456;27;20087;-63
2024/02/02 10:45:42;;;;;;;28.25;5.97;;;8.80;99.90;;;;;;5138284;27;20072;-63
2024/02/02 10:48:26;;;;;;;25.83;6.75;;;8.80;99.90;;;;;;5139327;27;20053;-62
2024/02/02 10:51:17;;;;;;;30.10;5.85;;;8.90;99.90;;;;;;5114211;27;20050;-62
2024/02/02 10:54:20;;;;;;;28.42;5.88;;;8.90;99.90;;;;;;5136692;27;20108;-62
2024/02/02 10:57:15;;;;;;;28.40;6.10;;;8.90;99.90;;;;;;5141994;27;20113;-62
2024/02/02 10:59:56;;;;;;;24.67;5.63;;;8.90;99.90;;;;;;5135374;27;20033;-62
2024/02/02 11:02:43;;;;;;;35.88;6.22;;;9.00;99.90;;;;;;5140553;27;20050;-64
2024/02/02 11:05:35;;;;;;;28.38;6.00;;;9.00;99.90;;;;;;5143020;27;20075;-62
2024/02/02 11:08:06;;;;;;;33.17;6.20;;;9.10;99.90;;;;;;5142380;27;20034;-63
2024/02/02 11:10:38;;;;;;;35.75;6.60;;;9.10;99.90;;;;;;5123333;27;20039;-62
2024/02/02 11:13:17;;;;;;;31.77;6.60;;;9.10;99.90;;;;;;5140290;27;20053;-62
2024/02/02 11:15:56;;;;;;;25.77;6.22;;;9.10;99.90;;;;;;5140202;27;20027;-63
2024/02/02 11:19:03;;;;;;;31.08;5.72;;;9.20;99.90;;;;;;5140574;27;20042;-63
2024/02/02 11:21:42;;;;;;;27.52;5.97;;;9.20;99.90;;;;;;5090538;27;20046;-63
2024/02/02 11:24:33;;;;;;;25.58;6.45;;;9.20;99.90;;;;;;5139416;27;20042;-63
2024/02/02 11:27:34;;;;;;;29.90;6.40;;;9.20;99.90;;;;;;5140436;27;20042;-62
2024/02/02 11:30:07;;;;;;;26.90;6.15;;;9.20;99.90;;;;;;5092359;27;20047;-63
2024/02/02 11:33:00;;;;;;;25.98;5.70;;;9.40;99.90;;;;;;5138958;27;20061;-63
2024/02/02 11:35:48;;;;;;;23.33;6.57;;;9.20;99.90;;;;;;5138556;27;20530;-63
2024/02/02 11:38:50;;;;;;;29.88;7.07;;;9.20;99.90;;;;;;5116239;27;20090;-63
2024/02/02 11:41:22;;;;;;;23.20;5.88;;;9.20;99.90;;;;;;5141747;27;20039;-63
2024/02/02 11:43:49;;;;;;;29.38;6.10;;;9.20;99.90;;;;;;5136857;27;20402;-63
2024/02/02 11:46:20;;;;;;;28.30;6.30;;;9.20;99.90;;;;;;5139809;27;20186;-62
2024/02/02 11:48:48;;;;;;;27.17;5.47;;;9.20;99.90;;;;;;5135713;27;20479;-62
2024/02/02 11:51:14;;;;;;;40.42;6.78;;;9.20;99.90;;;;;;5133930;27;20482;-63
2024/02/02 11:54:01;;;;;;;30.92;5.75;;;9.30;99.90;;;;;;5139058;27;20121;-63
2024/02/02 11:56:34;;;;;;;26.20;5.78;;;9.30;99.90;;;;;;5121010;27;20041;-63
2024/02/02 11:59:28;;;;;;;20.52;5.35;;;9.30;99.90;;;;;;5140278;27;20031;-63
2024/02/02 12:01:54;;;;;;;22.25;6.13;;;9.40;99.90;;;;;;5139663;27;20558;-63
2024/02/02 12:04:44;;;;;;;30.33;5.88;;;9.40;99.90;;;;;;5139262;27;20035;-63
2024/02/02 12:07:42;;;;;;;19.50;5.53;;;9.40;99.90;;;;;;5127621;27;20237;-64
2024/02/02 12:10:15;;;;;;;20.88;5.28;;;9.40;99.90;;;;;;5137590;27;20047;-64
2024/02/02 12:12:48;;;;;;;21.67;5.18;;;9.30;99.90;;;;;;5137836;27;20045;-63
2024/02/02 12:15:14;;;;;;;27.30;5.63;;;9.40;99.90;;;;;;5139680;27;20768;-64
2024/02/02 12:17:40;;;;;;;24.48;6.18;;;9.40;99.90;;;;;;5138830;27;20031;-63
2024/02/02 12:20:09;;;;;;;29.63;5.13;;;9.40;99.90;;;;;;5140172;27;20070;-63
2024/02/02 12:22:36;;;;;;;21.15;5.30;;;9.50;99.90;;;;;;5135923;27;20806;-63
2024/02/02 12:25:09;;;;;;;28.63;5.10;;;9.40;99.90;;;;;;5140544;27;20034;-63
2024/02/02 12:27:38;;;;;;;23.65;5.25;;;9.50;99.90;;;;;;5140178;27;20073;-63
2024/02/02 12:30:07;;;;;;;26.73;5.80;;;9.50;99.90;;;;;;5140168;27;20059;-63
2024/02/02 12:32:34;;;;;;;27.00;5.35;;;9.40;99.90;;;;;;5139304;27;20521;-63
2024/02/02 12:35:00;;;;;;;18.65;5.60;;;9.40;99.90;;;;;;5141753;27;20031;-64
2024/02/02 12:37:25;;;;;;;28.08;6.90;;;9.50;99.90;;;;;;5138477;27;20054;-63
2024/02/02 12:39:54;;;;;;;20.42;5.85;;;9.50;99.90;;;;;;5140242;27;20057;-64
2024/02/02 12:42:23;;;;;;;26.05;6.25;;;9.50;99.90;;;;;;5139415;27;20563;-63
2024/02/02 12:44:52;;;;;;;22.02;6.20;;;9.50;99.90;;;;;;5140252;27;20897;-63
2024/02/02 12:47:27;;;;;;;19.75;5.75;;;9.50;99.90;;;;;;5140227;27;20027;-64
2024/02/02 12:49:56;;;;;;;28.02;6.55;;;9.40;99.90;;;;;;5120367;27;20062;-64
2024/02/02 12:52:22;;;;;;;27.33;6.38;;;9.40;99.90;;;;;;5137802;27;20031;-63
2024/02/02 12:54:51;;;;;;;26.48;6.22;;;9.40;99.90;;;;;;5141832;27;20502;-64
2024/02/02 12:57:17;;;;;;;20.08;6.22;;;9.40;99.90;;;;;;5142655;27;20513;-64
2024/02/02 12:59:43;;;;;;;19.33;6.65;;;9.30;99.90;;;;;;5143662;27;20046;-63
2024/02/02 13:02:08;;;;;;;28.20;7.07;;;9.40;99.90;;;;;;5142972;27;20086;-64
2024/02/02 13:04:35;;;;;;;23.33;6.53;;;9.30;99.90;;;;;;5142839;27;20882;-64